sensor_id;sensor_type;location;lat;lon;timestamp;temperature;humidity
14409;DHT22;7289;50.706;4.992;2022-08-19T00:01:57;18.40;99.90
14409;DHT22;7289;50.706;4.992;2022-08-19T00:04:29;18.40;99.90
14409;DHT22;7289;50.706;4.992;2022-08-19T00:06:58;18.30;99.90
14409;DHT22;7289;50.706;4.992;2022-08-19T00:09:27;18.40;99.90
14409;DHT22;7289;50.706;4.992;2022-08-19T00:11:58;18.40;99.90
14409;DHT22;7289;50.706;4.992;2022-08-19T00:14:27;18.30;99.90
14409;DHT22;7289;50.706;4.992;2022-08-19T00:16:59;18.20;99.90
14409;DHT22;7289;50.706;4.992;2022-08-19T00:19:28;18.20;99.90
14409;DHT22;7289;50.706;4.992;2022-08-19T00:21:56;18.20;99.90
14409;DHT22;7289;50.706;4.992;2022-08-19T00:24:24;18.20;99.90
14409;DHT22;7289;50.706;4.992;2022-08-19T00:26:57;18.20;99.90
14409;DHT22;7289;50.706;4.992;2022-08-19T00:29:45;18.20;99.90
14409;DHT22;7289;50.706;4.992;2022-08-19T00:32:19;18.20;99.90
14409;DHT22;7289;50.706;4.992;2022-08-19T00:34:47;18.10;99.90
14409;DHT22;7289;50.706;4.992;2022-08-19T00:37:16;18.10;99.90
14409;DHT22;7289;50.706;4.992;2022-08-19T00:39:44;18.10;99.90
14409;DHT22;7289;50.706;4.992;2022-08-19T00:42:17;18.10;99.90
14409;DHT22;7289;50.706;4.992;2022-08-19T00:44:46;18.00;99.90
14409;DHT22;7289;50.706;4.992;2022-08-19T00:47:14;18.00;99.90
14409;DHT22;7289;50.706;4.992;2022-08-19T00:49:48;18.00;99.90
14409;DHT22;7289;50.706;4.992;2022-08-19T00:52:21;18.00;99.90
14409;DHT22;7289;50.706;4.992;2022-08-19T00:54:51;18.00;99.90
14409;DHT22;7289;50.706;4.992;2022-08-19T00:57:25;18.00;99.90
14409;DHT22;7289;50.706;4.992;2022-08-19T00:59:55;17.90;99.90
14409;DHT22;7289;50.706;4.992;2022-08-19T01:02:30;17.80;99.90
14409;DHT22;7289;50.706;4.992;2022-08-19T01:05:01;17.80;99.90
14409;DHT22;7289;50.706;4.992;2022-08-19T01:07:29;17.70;99.90
14409;DHT22;7289;50.706;4.992;2022-08-19T01:10:06;17.70;99.90
14409;DHT22;7289;50.706;4.992;2022-08-19T01:12:37;17.70;99.90
14409;DHT22;7289;50.706;4.992;2022-08-19T01:15:08;17.70;99.90
14409;DHT22;7289;50.706;4.992;2022-08-19T01:17:39;17.60;99.90
14409;DHT22;7289;50.706;4.992;2022-08-19T01:20:11;17.60;99.90
14409;DHT22;7289;50.706;4.992;2022-08-19T01:22:44;17.60;99.90
14409;DHT22;7289;50.706;4.992;2022-08-19T01:25:14;17.70;99.90
14409;DHT22;7289;50.706;4.992;2022-08-19T01:27:46;17.70;99.90
14409;DHT22;7289;50.706;4.992;2022-08-19T01:30:23;17.70;99.90
14409;DHT22;7289;50.706;4.992;2022-08-19T01:32:52;17.60;99.90
14409;DHT22;7289;50.706;4.992;2022-08-19T01:35:22;17.60;99.90
14409;DHT22;7289;50.706;4.992;2022-08-19T01:37:54;17.60;99.90
14409;DHT22;7289;50.706;4.992;2022-08-19T01:40:26;17.60;99.90
14409;DHT22;7289;50.706;4.992;2022-08-19T01:42:55;17.60;99.90
14409;DHT22;7289;50.706;4.992;2022-08-19T01:45:26;17.60;99.90
14409;DHT22;7289;50.706;4.992;2022-08-19T01:47:55;17.70;99.90
14409;DHT22;7289;50.706;4.992;2022-08-19T01:50:29;17.70;99.90
14409;DHT22;7289;50.706;4.992;2022-08-19T01:52:59;17.80;99.90
14409;DHT22;7289;50.706;4.992;2022-08-19T01:55:35;17.80;99.90
14409;DHT22;7289;50.706;4.992;2022-08-19T01:58:10;17.90;99.90
14409;DHT22;7289;50.706;4.992;2022-08-19T02:00:41;17.90;99.90
14409;DHT22;7289;50.706;4.992;2022-08-19T02:03:09;17.80;99.90
14409;DHT22;7289;50.706;4.992;2022-08-19T02:05:38;17.90;99.90
14409;DHT22;7289;50.706;4.992;2022-08-19T02:08:09;17.90;99.90
14409;DHT22;7289;50.706;4.992;2022-08-19T02:10:40;17.90;99.90
14409;DHT22;7289;50.706;4.992;2022-08-19T02:13:09;18.00;99.90
14409;DHT22;7289;50.706;4.992;2022-08-19T02:15:38;18.00;99.90
14409;DHT22;7289;50.706;4.992;2022-08-19T02:18:06;17.90;99.90
14409;DHT22;7289;50.706;4.992;2022-08-19T02:20:36;18.00;99.90
14409;DHT22;7289;50.706;4.992;2022-08-19T02:23:06;17.80;99.90
14409;DHT22;7289;50.706;4.992;2022-08-19T02:25:42;17.80;99.90
14409;DHT22;7289;50.706;4.992;2022-08-19T02:28:11;17.80;99.90
14409;DHT22;7289;50.706;4.992;2022-08-19T02:30:45;17.80;99.90
14409;DHT22;7289;50.706;4.992;2022-08-19T02:33:14;17.80;99.90
14409;DHT22;7289;50.706;4.992;2022-08-19T02:35:43;17.80;99.90
14409;DHT22;7289;50.706;4.992;2022-08-19T02:38:11;17.70;99.90
14409;DHT22;7289;50.706;4.992;2022-08-19T02:40:58;17.70;99.90
14409;DHT22;7289;50.706;4.992;2022-08-19T02:43:28;17.60;99.90
14409;DHT22;7289;50.706;4.992;2022-08-19T02:46:01;17.60;99.90
14409;DHT22;7289;50.706;4.992;2022-08-19T02:48:29;17.60;99.90
14409;DHT22;7289;50.706;4.992;2022-08-19T02:50:59;17.60;99.90
14409;DHT22;7289;50.706;4.992;2022-08-19T02:53:28;17.50;99.90
14409;DHT22;7289;50.706;4.992;2022-08-19T02:55:58;17.50;99.90
14409;DHT22;7289;50.706;4.992;2022-08-19T02:58:26;17.50;99.90
14409;DHT22;7289;50.706;4.992;2022-08-19T03:00:56;17.40;99.90
14409;DHT22;7289;50.706;4.992;2022-08-19T03:03:25;17.40;99.90
14409;DHT22;7289;50.706;4.992;2022-08-19T03:06:03;17.40;99.90
14409;DHT22;7289;50.706;4.992;2022-08-19T03:08:32;17.40;99.90
14409;DHT22;7289;50.706;4.992;2022-08-19T03:11:02;17.40;99.90
14409;DHT22;7289;50.706;4.992;2022-08-19T03:13:31;17.40;99.90
14409;DHT22;7289;50.706;4.992;2022-08-19T03:15:59;17.30;99.90
14409;DHT22;7289;50.706;4.992;2022-08-19T03:18:27;17.30;99.90
14409;DHT22;7289;50.706;4.992;2022-08-19T03:20:56;17.30;99.90
14409;DHT22;7289;50.706;4.992;2022-08-19T03:23:24;17.30;99.90
14409;DHT22;7289;50.706;4.992;2022-08-19T03:25:53;17.30;99.90
14409;DHT22;7289;50.706;4.992;2022-08-19T03:28:43;17.20;99.90
14409;DHT22;7289;50.706;4.992;2022-08-19T03:31:21;17.20;99.90
14409;DHT22;7289;50.706;4.992;2022-08-19T03:34:10;17.10;99.90
14409;DHT22;7289;50.706;4.992;2022-08-19T03:36:39;17.10;99.90
14409;DHT22;7289;50.706;4.992;2022-08-19T03:39:09;17.10;99.90
14409;DHT22;7289;50.706;4.992;2022-08-19T03:41:40;17.10;99.90
14409;DHT22;7289;50.706;4.992;2022-08-19T03:44:14;17.10;99.90
14409;DHT22;7289;50.706;4.992;2022-08-19T03:46:46;17.00;99.90
14409;DHT22;7289;50.706;4.992;2022-08-19T03:49:15;17.00;99.90
14409;DHT22;7289;50.706;4.992;2022-08-19T03:51:47;16.90;99.90
14409;DHT22;7289;50.706;4.992;2022-08-19T03:54:17;16.90;99.90
14409;DHT22;7289;50.706;4.992;2022-08-19T03:56:48;16.90;99.90
14409;DHT22;7289;50.706;4.992;2022-08-19T03:59:21;16.80;99.90
14409;DHT22;7289;50.706;4.992;2022-08-19T04:01:53;16.80;99.90
14409;DHT22;7289;50.706;4.992;2022-08-19T04:04:22;16.80;99.90
14409;DHT22;7289;50.706;4.992;2022-08-19T04:06:50;16.80;99.90
14409;DHT22;7289;50.706;4.992;2022-08-19T04:09:19;16.70;99.90
14409;DHT22;7289;50.706;4.992;2022-08-19T04:11:50;16.70;99.90
14409;DHT22;7289;50.706;4.992;2022-08-19T04:14:25;16.70;99.90
14409;DHT22;7289;50.706;4.992;2022-08-19T04:16:53;16.70;99.90
14409;DHT22;7289;50.706;4.992;2022-08-19T04:19:22;16.70;99.90
14409;DHT22;7289;50.706;4.992;2022-08-19T04:21:52;16.70;99.90
14409;DHT22;7289;50.706;4.992;2022-08-19T04:24:22;16.70;99.90
14409;DHT22;7289;50.706;4.992;2022-08-19T04:26:51;16.60;99.90
14409;DHT22;7289;50.706;4.992;2022-08-19T04:29:23;16.60;99.90
14409;DHT22;7289;50.706;4.992;2022-08-19T04:31:53;16.60;99.90
14409;DHT22;7289;50.706;4.992;2022-08-19T04:34:25;16.60;99.90
14409;DHT22;7289;50.706;4.992;2022-08-19T04:36:55;16.60;99.90
14409;DHT22;7289;50.706;4.992;2022-08-19T04:39:26;16.60;99.90
14409;DHT22;7289;50.706;4.992;2022-08-19T04:42:17;16.50;99.90
14409;DHT22;7289;50.706;4.992;2022-08-19T04:45:05;16.60;99.90
14409;DHT22;7289;50.706;4.992;2022-08-19T04:47:39;16.60;99.90
14409;DHT22;7289;50.706;4.992;2022-08-19T04:50:24;16.60;99.90
14409;DHT22;7289;50.706;4.992;2022-08-19T04:52:52;16.60;99.90
14409;DHT22;7289;50.706;4.992;2022-08-19T04:55:22;16.60;99.90
14409;DHT22;7289;50.706;4.992;2022-08-19T04:57:52;16.50;99.90
14409;DHT22;7289;50.706;4.992;2022-08-19T05:00:22;16.50;99.90
14409;DHT22;7289;50.706;4.992;2022-08-19T05:02:50;16.50;99.90
14409;DHT22;7289;50.706;4.992;2022-08-19T05:05:19;16.50;99.90
14409;DHT22;7289;50.706;4.992;2022-08-19T05:07:47;16.40;99.90
14409;DHT22;7289;50.706;4.992;2022-08-19T05:10:16;16.50;99.90
14409;DHT22;7289;50.706;4.992;2022-08-19T05:12:44;16.50;99.90
14409;DHT22;7289;50.706;4.992;2022-08-19T05:15:13;16.60;99.90
14409;DHT22;7289;50.706;4.992;2022-08-19T05:17:42;16.60;99.90
14409;DHT22;7289;50.706;4.992;2022-08-19T05:20:31;16.70;99.90
14409;DHT22;7289;50.706;4.992;2022-08-19T05:23:17;16.80;99.90
14409;DHT22;7289;50.706;4.992;2022-08-19T05:25:49;16.90;99.90
14409;DHT22;7289;50.706;4.992;2022-08-19T05:28:19;17.00;99.90
14409;DHT22;7289;50.706;4.992;2022-08-19T05:30:48;17.10;99.90
14409;DHT22;7289;50.706;4.992;2022-08-19T05:33:19;17.20;99.90
14409;DHT22;7289;50.706;4.992;2022-08-19T05:35:48;17.30;99.90
14409;DHT22;7289;50.706;4.992;2022-08-19T05:38:17;17.40;99.90
14409;DHT22;7289;50.706;4.992;2022-08-19T05:40:45;17.50;99.90
14409;DHT22;7289;50.706;4.992;2022-08-19T05:43:14;17.70;99.90
14409;DHT22;7289;50.706;4.992;2022-08-19T05:45:44;17.70;99.90
14409;DHT22;7289;50.706;4.992;2022-08-19T05:48:12;17.80;99.90
14409;DHT22;7289;50.706;4.992;2022-08-19T05:50:42;17.90;99.90
14409;DHT22;7289;50.706;4.992;2022-08-19T05:53:12;17.90;99.90
14409;DHT22;7289;50.706;4.992;2022-08-19T05:55:43;17.90;99.90
14409;DHT22;7289;50.706;4.992;2022-08-19T05:58:11;17.90;99.90
14409;DHT22;7289;50.706;4.992;2022-08-19T06:00:40;18.00;99.90
14409;DHT22;7289;50.706;4.992;2022-08-19T06:03:10;18.10;99.90
14409;DHT22;7289;50.706;4.992;2022-08-19T06:05:39;18.20;99.90
14409;DHT22;7289;50.706;4.992;2022-08-19T06:08:19;18.20;99.90
14409;DHT22;7289;50.706;4.992;2022-08-19T06:11:15;18.20;99.90
14409;DHT22;7289;50.706;4.992;2022-08-19T06:13:44;18.20;99.90
14409;DHT22;7289;50.706;4.992;2022-08-19T06:16:14;18.20;99.90
14409;DHT22;7289;50.706;4.992;2022-08-19T06:18:46;18.20;99.90
14409;DHT22;7289;50.706;4.992;2022-08-19T06:21:15;18.20;99.90
14409;DHT22;7289;50.706;4.992;2022-08-19T06:23:44;18.30;99.90
14409;DHT22;7289;50.706;4.992;2022-08-19T06:26:14;18.40;99.90
14409;DHT22;7289;50.706;4.992;2022-08-19T06:28:43;18.50;99.90
14409;DHT22;7289;50.706;4.992;2022-08-19T06:31:13;18.50;99.90
14409;DHT22;7289;50.706;4.992;2022-08-19T06:33:44;18.60;99.90
14409;DHT22;7289;50.706;4.992;2022-08-19T06:36:17;18.80;99.90
14409;DHT22;7289;50.706;4.992;2022-08-19T06:38:47;18.90;99.90
14409;DHT22;7289;50.706;4.992;2022-08-19T06:41:16;19.00;99.90
14409;DHT22;7289;50.706;4.992;2022-08-19T06:43:44;19.10;99.90
14409;DHT22;7289;50.706;4.992;2022-08-19T06:46:15;19.40;99.90
14409;DHT22;7289;50.706;4.992;2022-08-19T06:48:45;19.40;99.90
14409;DHT22;7289;50.706;4.992;2022-08-19T06:51:14;19.50;99.90
14409;DHT22;7289;50.706;4.992;2022-08-19T06:53:47;19.50;99.90
14409;DHT22;7289;50.706;4.992;2022-08-19T06:56:23;19.60;99.90
14409;DHT22;7289;50.706;4.992;2022-08-19T06:58:52;19.80;99.90
14409;DHT22;7289;50.706;4.992;2022-08-19T07:01:20;19.90;99.90
14409;DHT22;7289;50.706;4.992;2022-08-19T07:03:49;19.80;99.90
14409;DHT22;7289;50.706;4.992;2022-08-19T07:06:17;19.70;99.90
14409;DHT22;7289;50.706;4.992;2022-08-19T07:09:09;19.80;99.90
14409;DHT22;7289;50.706;4.992;2022-08-19T07:11:38;19.90;99.90
14409;DHT22;7289;50.706;4.992;2022-08-19T07:14:06;20.00;99.90
14409;DHT22;7289;50.706;4.992;2022-08-19T07:16:46;20.10;99.90
14409;DHT22;7289;50.706;4.992;2022-08-19T07:19:15;20.20;99.90
14409;DHT22;7289;50.706;4.992;2022-08-19T07:21:46;20.30;99.90
14409;DHT22;7289;50.706;4.992;2022-08-19T07:24:16;20.50;99.90
14409;DHT22;7289;50.706;4.992;2022-08-19T07:26:45;20.70;99.90
14409;DHT22;7289;50.706;4.992;2022-08-19T07:29:19;20.90;99.90
14409;DHT22;7289;50.706;4.992;2022-08-19T07:31:53;21.10;99.90
14409;DHT22;7289;50.706;4.992;2022-08-19T07:34:23;21.60;99.90
14409;DHT22;7289;50.706;4.992;2022-08-19T07:36:53;21.90;99.90
14409;DHT22;7289;50.706;4.992;2022-08-19T07:39:28;22.10;99.90
14409;DHT22;7289;50.706;4.992;2022-08-19T07:41:58;22.30;99.90
14409;DHT22;7289;50.706;4.992;2022-08-19T07:44:27;22.50;99.90
14409;DHT22;7289;50.706;4.992;2022-08-19T07:46:57;22.60;99.70
14409;DHT22;7289;50.706;4.992;2022-08-19T07:49:25;22.60;99.50
14409;DHT22;7289;50.706;4.992;2022-08-19T07:51:57;22.90;99.00
14409;DHT22;7289;50.706;4.992;2022-08-19T07:54:30;23.30;98.40
14409;DHT22;7289;50.706;4.992;2022-08-19T07:56:58;23.50;97.80
14409;DHT22;7289;50.706;4.992;2022-08-19T07:59:27;23.80;97.50
14409;DHT22;7289;50.706;4.992;2022-08-19T08:01:57;24.10;96.50
14409;DHT22;7289;50.706;4.992;2022-08-19T08:04:27;24.20;96.50
14409;DHT22;7289;50.706;4.992;2022-08-19T08:07:14;24.40;95.90
14409;DHT22;7289;50.706;4.992;2022-08-19T08:10:04;24.40;96.60
14409;DHT22;7289;50.706;4.992;2022-08-19T08:12:46;24.40;95.40
14409;DHT22;7289;50.706;4.992;2022-08-19T08:15:35;24.50;96.30
14409;DHT22;7289;50.706;4.992;2022-08-19T08:18:09;24.60;95.60
14409;DHT22;7289;50.706;4.992;2022-08-19T08:20:38;24.70;95.70
14409;DHT22;7289;50.706;4.992;2022-08-19T08:23:06;24.80;94.90
14409;DHT22;7289;50.706;4.992;2022-08-19T08:25:55;24.80;94.70
14409;DHT22;7289;50.706;4.992;2022-08-19T08:28:24;25.00;94.80
14409;DHT22;7289;50.706;4.992;2022-08-19T08:30:57;24.90;94.00
14409;DHT22;7289;50.706;4.992;2022-08-19T08:33:27;24.80;94.10
14409;DHT22;7289;50.706;4.992;2022-08-19T08:36:01;24.70;94.10
14409;DHT22;7289;50.706;4.992;2022-08-19T08:38:31;24.70;94.30
14409;DHT22;7289;50.706;4.992;2022-08-19T08:41:14;24.70;94.10
14409;DHT22;7289;50.706;4.992;2022-08-19T08:43:49;24.80;94.20
14409;DHT22;7289;50.706;4.992;2022-08-19T08:46:23;25.00;94.20
14409;DHT22;7289;50.706;4.992;2022-08-19T08:49:02;24.90;94.10
14409;DHT22;7289;50.706;4.992;2022-08-19T08:51:38;25.10;94.10
14409;DHT22;7289;50.706;4.992;2022-08-19T08:54:12;25.10;93.90
14409;DHT22;7289;50.706;4.992;2022-08-19T08:56:43;24.90;93.50
14409;DHT22;7289;50.706;4.992;2022-08-19T08:59:19;24.80;93.80
14409;DHT22;7289;50.706;4.992;2022-08-19T09:01:48;24.70;93.80
14409;DHT22;7289;50.706;4.992;2022-08-19T09:04:17;24.60;93.50
14409;DHT22;7289;50.706;4.992;2022-08-19T09:06:51;24.60;93.50
14409;DHT22;7289;50.706;4.992;2022-08-19T09:09:27;24.60;93.60
14409;DHT22;7289;50.706;4.992;2022-08-19T09:12:06;24.60;92.50
14409;DHT22;7289;50.706;4.992;2022-08-19T09:14:45;24.80;93.00
14409;DHT22;7289;50.706;4.992;2022-08-19T09:17:19;25.20;92.70
14409;DHT22;7289;50.706;4.992;2022-08-19T09:19:57;25.50;91.90
14409;DHT22;7289;50.706;4.992;2022-08-19T09:22:27;25.60;91.20
14409;DHT22;7289;50.706;4.992;2022-08-19T09:24:56;25.40;91.30
14409;DHT22;7289;50.706;4.992;2022-08-19T09:27:27;25.30;91.60
14409;DHT22;7289;50.706;4.992;2022-08-19T09:30:11;25.40;91.60
14409;DHT22;7289;50.706;4.992;2022-08-19T09:32:40;25.60;91.60
14409;DHT22;7289;50.706;4.992;2022-08-19T09:35:09;25.60;91.30
14409;DHT22;7289;50.706;4.992;2022-08-19T09:37:38;25.70;91.50
14409;DHT22;7289;50.706;4.992;2022-08-19T09:40:07;25.60;91.20
14409;DHT22;7289;50.706;4.992;2022-08-19T09:42:39;25.90;90.80
14409;DHT22;7289;50.706;4.992;2022-08-19T09:45:18;26.10;89.90
14409;DHT22;7289;50.706;4.992;2022-08-19T09:47:48;25.90;88.30
14409;DHT22;7289;50.706;4.992;2022-08-19T09:50:20;25.90;89.50
14409;DHT22;7289;50.706;4.992;2022-08-19T09:52:49;25.80;89.80
14409;DHT22;7289;50.706;4.992;2022-08-19T09:55:24;25.50;90.40
14409;DHT22;7289;50.706;4.992;2022-08-19T09:58:03;25.30;91.20
14409;DHT22;7289;50.706;4.992;2022-08-19T10:00:31;25.30;91.10
14409;DHT22;7289;50.706;4.992;2022-08-19T10:02:59;25.10;91.60
14409;DHT22;7289;50.706;4.992;2022-08-19T10:05:29;25.30;91.40
14409;DHT22;7289;50.706;4.992;2022-08-19T10:08:17;25.80;91.90
14409;DHT22;7289;50.706;4.992;2022-08-19T10:10:48;26.50;91.30
14409;DHT22;7289;50.706;4.992;2022-08-19T10:13:26;27.20;89.80
14409;DHT22;7289;50.706;4.992;2022-08-19T10:15:56;27.50;87.60
14409;DHT22;7289;50.706;4.992;2022-08-19T10:18:25;27.70;88.10
14409;DHT22;7289;50.706;4.992;2022-08-19T10:21:04;27.90;86.80
14409;DHT22;7289;50.706;4.992;2022-08-19T10:23:38;28.20;87.50
14409;DHT22;7289;50.706;4.992;2022-08-19T10:26:07;28.40;86.60
14409;DHT22;7289;50.706;4.992;2022-08-19T10:28:37;28.50;85.50
14409;DHT22;7289;50.706;4.992;2022-08-19T10:31:11;28.50;86.80
14409;DHT22;7289;50.706;4.992;2022-08-19T10:33:40;28.40;86.20
14409;DHT22;7289;50.706;4.992;2022-08-19T10:36:21;28.30;86.90
14409;DHT22;7289;50.706;4.992;2022-08-19T10:38:52;28.20;86.80
14409;DHT22;7289;50.706;4.992;2022-08-19T10:41:26;28.30;86.50
14409;DHT22;7289;50.706;4.992;2022-08-19T10:43:58;28.20;86.20
14409;DHT22;7289;50.706;4.992;2022-08-19T10:46:31;28.30;86.30
14409;DHT22;7289;50.706;4.992;2022-08-19T10:49:01;28.20;87.40
14409;DHT22;7289;50.706;4.992;2022-08-19T10:51:30;28.10;88.00
14409;DHT22;7289;50.706;4.992;2022-08-19T10:54:16;28.20;87.20
14409;DHT22;7289;50.706;4.992;2022-08-19T10:56:59;28.70;86.50
14409;DHT22;7289;50.706;4.992;2022-08-19T10:59:29;28.90;84.30
14409;DHT22;7289;50.706;4.992;2022-08-19T11:02:04;28.70;85.50
14409;DHT22;7289;50.706;4.992;2022-08-19T11:04:33;28.60;86.10
14409;DHT22;7289;50.706;4.992;2022-08-19T11:07:03;28.60;85.10
14409;DHT22;7289;50.706;4.992;2022-08-19T11:09:35;28.50;85.70
14409;DHT22;7289;50.706;4.992;2022-08-19T11:12:05;28.40;85.40
14409;DHT22;7289;50.706;4.992;2022-08-19T11:14:36;28.50;87.00
14409;DHT22;7289;50.706;4.992;2022-08-19T11:17:05;28.60;86.60
14409;DHT22;7289;50.706;4.992;2022-08-19T11:19:34;28.80;86.60
14409;DHT22;7289;50.706;4.992;2022-08-19T11:22:03;29.00;86.30
14409;DHT22;7289;50.706;4.992;2022-08-19T11:24:31;29.30;84.20
14409;DHT22;7289;50.706;4.992;2022-08-19T11:27:04;29.40;83.60
14409;DHT22;7289;50.706;4.992;2022-08-19T11:29:34;29.30;82.30
14409;DHT22;7289;50.706;4.992;2022-08-19T11:32:05;29.20;82.60
14409;DHT22;7289;50.706;4.992;2022-08-19T11:34:34;29.30;84.80
14409;DHT22;7289;50.706;4.992;2022-08-19T11:37:03;29.40;84.00
14409;DHT22;7289;50.706;4.992;2022-08-19T11:39:33;29.60;84.50
14409;DHT22;7289;50.706;4.992;2022-08-19T11:42:03;29.60;83.50
14409;DHT22;7289;50.706;4.992;2022-08-19T11:44:53;29.70;84.00
14409;DHT22;7289;50.706;4.992;2022-08-19T11:47:22;29.70;83.50
14409;DHT22;7289;50.706;4.992;2022-08-19T11:49:50;29.40;83.90
14409;DHT22;7289;50.706;4.992;2022-08-19T11:52:20;29.50;84.70
14409;DHT22;7289;50.706;4.992;2022-08-19T11:54:48;29.60;83.80
14409;DHT22;7289;50.706;4.992;2022-08-19T11:57:16;29.70;84.30
14409;DHT22;7289;50.706;4.992;2022-08-19T11:59:50;29.80;83.10
14409;DHT22;7289;50.706;4.992;2022-08-19T12:02:20;29.60;84.50
14409;DHT22;7289;50.706;4.992;2022-08-19T12:04:48;29.60;83.50
14409;DHT22;7289;50.706;4.992;2022-08-19T12:07:17;29.40;83.40
14409;DHT22;7289;50.706;4.992;2022-08-19T12:09:45;29.30;84.70
14409;DHT22;7289;50.706;4.992;2022-08-19T12:12:14;29.10;85.00
14409;DHT22;7289;50.706;4.992;2022-08-19T12:14:43;28.90;86.10
14409;DHT22;7289;50.706;4.992;2022-08-19T12:17:13;28.70;86.10
14409;DHT22;7289;50.706;4.992;2022-08-19T12:19:42;28.40;86.50
14409;DHT22;7289;50.706;4.992;2022-08-19T12:22:11;28.40;87.70
14409;DHT22;7289;50.706;4.992;2022-08-19T12:24:39;28.20;87.30
14409;DHT22;7289;50.706;4.992;2022-08-19T12:27:07;28.00;87.70
14409;DHT22;7289;50.706;4.992;2022-08-19T12:29:39;27.90;88.20
14409;DHT22;7289;50.706;4.992;2022-08-19T12:32:08;27.90;89.00
14409;DHT22;7289;50.706;4.992;2022-08-19T12:34:38;27.90;89.30
14409;DHT22;7289;50.706;4.992;2022-08-19T12:37:08;27.70;89.50
14409;DHT22;7289;50.706;4.992;2022-08-19T12:39:39;27.60;90.00
14409;DHT22;7289;50.706;4.992;2022-08-19T12:42:09;27.60;90.00
14409;DHT22;7289;50.706;4.992;2022-08-19T12:44:39;27.60;89.20
14409;DHT22;7289;50.706;4.992;2022-08-19T12:47:10;27.60;90.40
14409;DHT22;7289;50.706;4.992;2022-08-19T12:49:39;27.80;90.00
14409;DHT22;7289;50.706;4.992;2022-08-19T12:52:24;28.10;90.00
14409;DHT22;7289;50.706;4.992;2022-08-19T12:54:55;28.30;87.80
14409;DHT22;7289;50.706;4.992;2022-08-19T12:57:26;28.20;87.50
14409;DHT22;7289;50.706;4.992;2022-08-19T13:00:00;28.10;87.80
14409;DHT22;7289;50.706;4.992;2022-08-19T13:02:31;28.20;88.00
14409;DHT22;7289;50.706;4.992;2022-08-19T13:05:07;28.40;87.40
14409;DHT22;7289;50.706;4.992;2022-08-19T13:07:40;28.40;88.20
14409;DHT22;7289;50.706;4.992;2022-08-19T13:10:13;28.80;86.80
14409;DHT22;7289;50.706;4.992;2022-08-19T13:12:42;29.10;86.50
14409;DHT22;7289;50.706;4.992;2022-08-19T13:15:11;29.10;85.70
14409;DHT22;7289;50.706;4.992;2022-08-19T13:17:41;29.00;85.90
14409;DHT22;7289;50.706;4.992;2022-08-19T13:20:10;29.00;86.30
14409;DHT22;7289;50.706;4.992;2022-08-19T13:22:40;29.10;85.00
14409;DHT22;7289;50.706;4.992;2022-08-19T13:25:09;29.30;85.00
14409;DHT22;7289;50.706;4.992;2022-08-19T13:27:39;29.30;84.60
14409;DHT22;7289;50.706;4.992;2022-08-19T13:30:09;29.40;84.60
14409;DHT22;7289;50.706;4.992;2022-08-19T13:32:56;29.60;84.60
14409;DHT22;7289;50.706;4.992;2022-08-19T13:35:49;29.70;84.00
14409;DHT22;7289;50.706;4.992;2022-08-19T13:38:21;29.70;83.90
14409;DHT22;7289;50.706;4.992;2022-08-19T13:40:51;29.80;82.80
14409;DHT22;7289;50.706;4.992;2022-08-19T13:43:22;29.80;82.50
14409;DHT22;7289;50.706;4.992;2022-08-19T13:45:52;29.80;84.20
14409;DHT22;7289;50.706;4.992;2022-08-19T13:48:22;29.90;84.80
14409;DHT22;7289;50.706;4.992;2022-08-19T13:50:53;29.90;82.20
14409;DHT22;7289;50.706;4.992;2022-08-19T13:53:23;29.90;82.40
14409;DHT22;7289;50.706;4.992;2022-08-19T13:55:51;29.90;82.30
14409;DHT22;7289;50.706;4.992;2022-08-19T13:58:21;29.70;82.60
14409;DHT22;7289;50.706;4.992;2022-08-19T14:00:50;29.60;84.30
14409;DHT22;7289;50.706;4.992;2022-08-19T14:03:18;29.60;84.00
14409;DHT22;7289;50.706;4.992;2022-08-19T14:05:47;29.60;82.60
14409;DHT22;7289;50.706;4.992;2022-08-19T14:08:15;29.50;81.00
14409;DHT22;7289;50.706;4.992;2022-08-19T14:10:45;29.50;82.70
14409;DHT22;7289;50.706;4.992;2022-08-19T14:13:16;29.20;82.00
14409;DHT22;7289;50.706;4.992;2022-08-19T14:15:45;29.20;83.40
14409;DHT22;7289;50.706;4.992;2022-08-19T14:18:14;29.40;82.60
14409;DHT22;7289;50.706;4.992;2022-08-19T14:20:44;29.70;84.80
14409;DHT22;7289;50.706;4.992;2022-08-19T14:23:12;29.90;80.70
14409;DHT22;7289;50.706;4.992;2022-08-19T14:25:40;29.90;81.60
14409;DHT22;7289;50.706;4.992;2022-08-19T14:28:10;29.90;81.40
14409;DHT22;7289;50.706;4.992;2022-08-19T14:30:39;29.90;82.00
14409;DHT22;7289;50.706;4.992;2022-08-19T14:33:07;29.70;82.40
14409;DHT22;7289;50.706;4.992;2022-08-19T14:35:37;29.80;84.00
14409;DHT22;7289;50.706;4.992;2022-08-19T14:38:06;30.20;81.70
14409;DHT22;7289;50.706;4.992;2022-08-19T14:40:42;30.40;81.30
14409;DHT22;7289;50.706;4.992;2022-08-19T14:43:12;30.30;81.60
14409;DHT22;7289;50.706;4.992;2022-08-19T14:45:44;30.10;80.90
14409;DHT22;7289;50.706;4.992;2022-08-19T14:48:12;30.00;82.40
14409;DHT22;7289;50.706;4.992;2022-08-19T14:50:46;29.90;81.50
14409;DHT22;7289;50.706;4.992;2022-08-19T14:53:16;29.90;81.10
14409;DHT22;7289;50.706;4.992;2022-08-19T14:55:45;29.80;81.20
14409;DHT22;7289;50.706;4.992;2022-08-19T14:58:16;29.60;80.90
14409;DHT22;7289;50.706;4.992;2022-08-19T15:00:58;29.40;81.70
14409;DHT22;7289;50.706;4.992;2022-08-19T15:03:27;29.10;82.20
14409;DHT22;7289;50.706;4.992;2022-08-19T15:05:56;28.70;83.50
14409;DHT22;7289;50.706;4.992;2022-08-19T15:08:26;28.40;84.00
14409;DHT22;7289;50.706;4.992;2022-08-19T15:10:55;28.30;85.30
14409;DHT22;7289;50.706;4.992;2022-08-19T15:13:28;28.10;85.10
14409;DHT22;7289;50.706;4.992;2022-08-19T15:15:57;28.00;85.70
14409;DHT22;7289;50.706;4.992;2022-08-19T15:18:25;27.90;85.40
14409;DHT22;7289;50.706;4.992;2022-08-19T15:20:53;27.60;86.60
14409;DHT22;7289;50.706;4.992;2022-08-19T15:23:23;27.50;87.10
14409;DHT22;7289;50.706;4.992;2022-08-19T15:25:51;27.30;88.10
14409;DHT22;7289;50.706;4.992;2022-08-19T15:28:23;27.20;87.50
14409;DHT22;7289;50.706;4.992;2022-08-19T15:30:53;26.70;90.20
14409;DHT22;7289;50.706;4.992;2022-08-19T15:33:21;26.30;92.30
14409;DHT22;7289;50.706;4.992;2022-08-19T15:35:49;26.10;92.70
14409;DHT22;7289;50.706;4.992;2022-08-19T15:38:19;26.10;93.20
14409;DHT22;7289;50.706;4.992;2022-08-19T15:40:48;26.10;93.10
14409;DHT22;7289;50.706;4.992;2022-08-19T15:43:18;26.10;93.20
14409;DHT22;7289;50.706;4.992;2022-08-19T15:45:48;26.10;92.60
14409;DHT22;7289;50.706;4.992;2022-08-19T15:48:18;26.00;92.40
14409;DHT22;7289;50.706;4.992;2022-08-19T15:50:47;25.90;92.40
14409;DHT22;7289;50.706;4.992;2022-08-19T15:53:15;25.80;92.20
14409;DHT22;7289;50.706;4.992;2022-08-19T15:55:45;25.80;92.50
14409;DHT22;7289;50.706;4.992;2022-08-19T15:58:14;25.80;93.10
14409;DHT22;7289;50.706;4.992;2022-08-19T16:01:03;25.90;92.80
14409;DHT22;7289;50.706;4.992;2022-08-19T16:03:52;25.90;93.00
14409;DHT22;7289;50.706;4.992;2022-08-19T16:06:43;25.70;93.60
14409;DHT22;7289;50.706;4.992;2022-08-19T16:09:13;25.80;93.90
14409;DHT22;7289;50.706;4.992;2022-08-19T16:11:41;25.80;94.10
14409;DHT22;7289;50.706;4.992;2022-08-19T16:14:12;25.70;94.90